createdAt,value
2018-10-03T00:00:25.763Z,98807.91
2018-10-03T00:02:54.085Z,98805.73
2018-10-03T00:05:22.417Z,98801.09
2018-10-03T00:07:50.741Z,98810.72
2018-10-03T00:10:19.102Z,98805.94
2018-10-03T00:12:47.491Z,98799.83
2018-10-03T00:15:15.815Z,98795.87
2018-10-03T00:17:44.123Z,98800.61
2018-10-03T00:20:12.770Z,98805.94
2018-10-03T00:22:41.083Z,98814.02
2018-10-03T00:25:09.528Z,98811.48
2018-10-03T00:27:37.841Z,98815.70
2018-10-03T00:30:06.450Z,98826.45
2018-10-03T00:32:34.743Z,98829.47
2018-10-03T00:35:03.130Z,98829.47
2018-10-03T00:37:31.404Z,98831.36
2018-10-03T00:39:59.869Z,98840.28
2018-10-03T00:42:28.176Z,98821.60
2018-10-03T00:44:56.513Z,98836.48
2018-10-03T00:47:24.831Z,98830.52
2018-10-03T00:49:53.264Z,98842.81
2018-10-03T00:52:21.671Z,98837.13
2018-10-03T00:54:50.803Z,98829.68
2018-10-03T00:57:19.096Z,98835.79
2018-10-03T00:59:47.395Z,98834.20
2018-10-03T01:02:15.760Z,98838.21
2018-10-03T01:04:44.047Z,98836.00
2018-10-03T01:07:12.355Z,98831.64
2018-10-03T01:09:40.676Z,98838.31
2018-10-03T01:12:09.022Z,98831.02
2018-10-03T01:14:38.168Z,98825.53
2018-10-03T01:17:06.694Z,98821.67
2018-10-03T01:19:35.422Z,98814.72
2018-10-03T01:22:03.757Z,98835.37
2018-10-03T01:24:32.340Z,98835.23
2018-10-03T01:27:00.655Z,98832.24
2018-10-03T01:29:29.022Z,98829.99
2018-10-03T01:31:57.382Z,98841.99
2018-10-03T01:34:25.667Z,98837.71
2018-10-03T01:36:53.992Z,98836.88
2018-10-03T01:39:22.420Z,98828.94
2018-10-03T01:41:50.811Z,98833.71
2018-10-03T01:44:19.200Z,98842.20
2018-10-03T01:46:47.508Z,98857.19
2018-10-03T01:49:15.812Z,98867.15
2018-10-03T01:51:44.133Z,98862.16
2018-10-03T01:54:12.467Z,98858.66
2018-10-03T01:56:40.827Z,98873.55
2018-10-03T01:59:12.111Z,98869.89
2018-10-03T02:01:40.435Z,98878.03
2018-10-03T02:04:08.736Z,98871.15
2018-10-03T02:06:37.283Z,98872.41
2018-10-03T02:09:06.988Z,98868.76
2018-10-03T02:11:35.359Z,98866.88
2018-10-03T02:14:03.649Z,98852.33
2018-10-03T02:16:31.984Z,98869.33
2018-10-03T02:19:00.322Z,98863.37
2018-10-03T02:21:28.659Z,98869.59
2018-10-03T02:23:56.972Z,98864.21
2018-10-03T02:26:25.306Z,98874.74
2018-10-03T02:28:53.599Z,98873.66
2018-10-03T02:31:21.906Z,98866.74
2018-10-03T02:33:50.208Z,98870.85
2018-10-03T02:36:18.521Z,98870.85
2018-10-03T02:38:46.826Z,98866.28
2018-10-03T02:41:15.155Z,98878.36
2018-10-03T02:43:43.488Z,98870.36
2018-10-03T02:46:11.785Z,98875.99
2018-10-03T02:48:40.140Z,98872.70
2018-10-03T02:51:08.458Z,98877.03
2018-10-03T02:53:36.786Z,98861.11
2018-10-03T02:56:05.072Z,98875.50
2018-10-03T02:58:33.410Z,98880.95
2018-10-03T03:01:01.815Z,98869.55
2018-10-03T03:03:30.200Z,98885.82
2018-10-03T03:05:58.568Z,98873.73
2018-10-03T03:08:26.965Z,98873.55
2018-10-03T03:10:55.297Z,98866.28
2018-10-03T03:13:23.666Z,98884.05
2018-10-03T03:15:52.026Z,98875.16
2018-10-03T03:18:20.407Z,98879.34
2018-10-03T03:20:48.764Z,98888.67
2018-10-03T03:23:17.137Z,98886.28
2018-10-03T03:25:45.525Z,98876.08
2018-10-03T03:28:13.919Z,98875.70
2018-10-03T03:30:42.273Z,98894.64
2018-10-03T03:33:10.623Z,98889.69
2018-10-03T03:35:39.128Z,98881.90
2018-10-03T03:38:07.627Z,98883.70
2018-10-03T03:40:36.098Z,98876.12
2018-10-03T03:43:04.528Z,98875.50
2018-10-03T03:45:32.881Z,98880.13
2018-10-03T03:48:01.297Z,98888.33
2018-10-03T03:50:30.145Z,98888.98
2018-10-03T03:52:58.552Z,98878.88
2018-10-03T03:55:26.878Z,98876.05
2018-10-03T03:57:55.322Z,98897.41
2018-10-03T04:00:23.821Z,98889.88
2018-10-03T04:02:52.185Z,98883.70
2018-10-03T04:05:20.537Z,98898.67
2018-10-03T04:07:48.913Z,98899.37
2018-10-03T04:10:17.252Z,98899.10
2018-10-03T04:12:45.624Z,98916.50
2018-10-03T04:15:14.023Z,98911.65
2018-10-03T04:17:42.403Z,98911.70
2018-10-03T04:20:10.809Z,98916.41
2018-10-03T04:22:39.212Z,98905.69
2018-10-03T04:25:07.617Z,98925.29
2018-10-03T04:27:36.038Z,98917.05
2018-10-03T04:30:04.438Z,98924.91
2018-10-03T04:32:32.824Z,98918.05
2018-10-03T04:35:01.160Z,98945.78
2018-10-03T04:37:29.568Z,98921.98
2018-10-03T04:39:57.942Z,98930.89
2018-10-03T04:42:26.297Z,98932.14
2018-10-03T04:44:54.838Z,98950.25
2018-10-03T04:47:23.233Z,98934.34
2018-10-03T04:49:51.708Z,98934.54
2018-10-03T04:52:20.134Z,98941.34
2018-10-03T04:54:57.469Z,98946.59
2018-10-03T04:57:26.626Z,98951.73
2018-10-03T04:59:55.014Z,98943.80
2018-10-03T05:02:23.368Z,98965.05
2018-10-03T05:04:51.797Z,98964.16
2018-10-03T05:07:20.309Z,98969.20
2018-10-03T05:09:48.728Z,98973.92
2018-10-03T05:12:17.104Z,98975.20
2018-10-03T05:14:45.595Z,98973.51
2018-10-03T05:17:14.270Z,98970.70
2018-10-03T05:19:42.682Z,98978.03
2018-10-03T05:22:11.122Z,98976.20
2018-10-03T05:24:39.522Z,98982.85
2018-10-03T05:27:07.981Z,98990.80
2018-10-03T05:29:36.568Z,98979.97
2018-10-03T05:32:04.959Z,98989.47
2018-10-03T05:34:33.437Z,98989.53
2018-10-03T05:37:01.914Z,98993.96
2018-10-03T05:39:30.364Z,99004.21
2018-10-03T05:41:58.798Z,98990.94
2018-10-03T05:44:27.252Z,98988.63
2018-10-03T05:46:55.666Z,98991.30
2018-10-03T05:49:24.109Z,99002.73
2018-10-03T05:51:52.470Z,99000.28
2018-10-03T05:54:20.853Z,99012.52
2018-10-03T05:56:49.275Z,99020.39
2018-10-03T05:59:17.694Z,99021.12
2018-10-03T06:01:46.241Z,99030.00
2018-10-03T06:04:15.070Z,99030.12
2018-10-03T06:06:43.573Z,99030.96
2018-10-03T06:09:12.993Z,99051.23
2018-10-03T06:11:42.441Z,99047.04
2018-10-03T06:14:11.155Z,99065.45
2018-10-03T06:16:39.519Z,99053.58
2018-10-03T06:19:07.884Z,99051.05
2018-10-03T06:21:36.743Z,99062.23
2018-10-03T06:24:05.204Z,99062.63
2018-10-03T06:26:33.725Z,99064.91
2018-10-03T06:29:02.782Z,99078.02
2018-10-03T06:31:31.148Z,99081.97
2018-10-03T06:33:59.605Z,99087.72
2018-10-03T06:36:28.068Z,99086.39
2018-10-03T06:38:56.526Z,99094.27
2018-10-03T06:41:25.129Z,99082.03
2018-10-03T06:43:53.533Z,99092.80
2018-10-03T06:46:21.903Z,99109.94
2018-10-03T06:48:50.309Z,99105.17
2018-10-03T06:51:18.749Z,99094.48
2018-10-03T06:53:47.125Z,99113.18
2018-10-03T06:56:15.488Z,99107.16
2018-10-03T06:58:43.850Z,99117.13
2018-10-03T07:01:12.231Z,99121.71
2018-10-03T07:03:40.596Z,99123.23
2018-10-03T07:06:09.024Z,99133.66
2018-10-03T07:08:37.438Z,99130.54
2018-10-03T07:11:05.996Z,99138.09
2018-10-03T07:13:34.333Z,99153.53
2018-10-03T07:16:02.811Z,99149.41
2018-10-03T07:18:31.194Z,99162.77
2018-10-03T07:20:59.604Z,99169.66
2018-10-03T07:23:28.015Z,99164.45
2018-10-03T07:25:56.447Z,99177.38
2018-10-03T07:28:24.832Z,99170.56
2018-10-03T07:30:53.333Z,99179.70
2018-10-03T07:33:21.912Z,99181.04
2018-10-03T07:35:50.320Z,99183.88
2018-10-03T07:38:18.690Z,99167.05
2018-10-03T07:40:47.100Z,99169.92
2018-10-03T07:43:15.478Z,99174.91
2018-10-03T07:45:43.981Z,99187.30
2018-10-03T07:48:12.472Z,99187.64
2018-10-03T07:50:40.865Z,99179.00
2018-10-03T07:53:09.218Z,99183.17
2018-10-03T07:55:37.608Z,99177.94
2018-10-03T07:58:06.303Z,99183.64
2018-10-03T08:00:34.695Z,99195.52
2018-10-03T08:03:03.094Z,99188.35
2018-10-03T08:05:31.814Z,99193.78
2018-10-03T08:08:00.461Z,99200.32
2018-10-03T08:10:28.935Z,99227.49
2018-10-03T08:12:57.790Z,99216.14
2018-10-03T08:15:26.335Z,99204.55
2018-10-03T08:17:54.665Z,99209.04
2018-10-03T08:20:23.115Z,99211.07
2018-10-03T08:22:51.565Z,99215.31
2018-10-03T08:25:19.937Z,99210.73
2018-10-03T08:27:49.581Z,99219.67
2018-10-03T08:30:18.143Z,99221.83
2018-10-03T08:32:46.692Z,99210.84
2018-10-03T08:35:15.004Z,99223.03
2018-10-03T08:37:43.361Z,99223.10
2018-10-03T08:40:11.808Z,99238.84
2018-10-03T08:42:40.214Z,99227.66
2018-10-03T08:45:08.917Z,99223.98
2018-10-03T08:47:38.136Z,99234.70
2018-10-03T08:50:08.860Z,99242.58
2018-10-03T08:52:37.728Z,99248.09
2018-10-03T08:55:06.510Z,99255.92
2018-10-03T08:57:35.484Z,99256.80
2018-10-03T09:00:10.309Z,99248.78
2018-10-03T09:02:38.972Z,99251.70
2018-10-03T09:05:07.896Z,99261.45
2018-10-03T09:07:36.538Z,99268.82
2018-10-03T09:10:05.159Z,99276.64
2018-10-03T09:12:33.503Z,99285.72
2018-10-03T09:15:01.871Z,99285.34
2018-10-03T09:17:30.206Z,99287.17
2018-10-03T09:19:58.687Z,99304.81
2018-10-03T09:22:27.061Z,99302.00
2018-10-03T09:24:55.497Z,99305.80
2018-10-03T09:27:24.005Z,99307.73
2018-10-03T09:29:52.351Z,99301.64
2018-10-03T09:32:20.732Z,99309.29
2018-10-03T09:34:49.238Z,99310.48
2018-10-03T09:37:17.718Z,99312.78
2018-10-03T09:39:46.092Z,99326.25
2018-10-03T09:42:14.511Z,99313.19
2018-10-03T09:44:42.846Z,99319.95
2018-10-03T09:47:11.462Z,99337.37
2018-10-03T09:49:39.790Z,99336.28
2018-10-03T09:52:08.167Z,99344.91
2018-10-03T09:54:36.452Z,99336.70
2018-10-03T09:57:04.799Z,99350.44
2018-10-03T09:59:33.098Z,99343.05
2018-10-03T10:02:01.522Z,99350.02
2018-10-03T10:04:29.917Z,99365.17
2018-10-03T10:06:58.472Z,99363.66
2018-10-03T10:09:26.944Z,99368.66
2018-10-03T10:11:55.434Z,99363.45
2018-10-03T10:14:23.777Z,99378.07
2018-10-03T10:16:52.151Z,99374.83
2018-10-03T10:19:22.005Z,99385.63
2018-10-03T10:21:50.503Z,99390.58
2018-10-03T10:24:18.893Z,99384.98
2018-10-03T10:26:47.285Z,99390.27
2018-10-03T10:29:15.707Z,99393.96
2018-10-03T10:31:44.265Z,99401.05
2018-10-03T10:34:12.973Z,99401.09
2018-10-03T10:36:41.351Z,99374.94
2018-10-03T10:39:11.023Z,99372.99
2018-10-03T10:41:39.582Z,99395.03
2018-10-03T10:44:08.047Z,99395.52
2018-10-03T10:46:36.835Z,99374.55
2018-10-03T10:49:05.244Z,99376.87
2018-10-03T10:51:33.837Z,99386.27
2018-10-03T10:54:02.344Z,99397.20
2018-10-03T10:56:31.267Z,99396.52
2018-10-03T10:59:00.162Z,99390.94
2018-10-03T11:01:28.689Z,99407.67
2018-10-03T11:03:57.332Z,99403.00
2018-10-03T11:06:25.985Z,99410.10
2018-10-03T11:08:55.421Z,99404.06
2018-10-03T11:11:25.470Z,99429.95
2018-10-03T11:13:53.992Z,99439.80
2018-10-03T11:16:22.587Z,99433.38
2018-10-03T11:18:51.124Z,99438.49
2018-10-03T11:21:19.585Z,99416.31
2018-10-03T11:23:49.630Z,99425.94
2018-10-03T11:26:18.362Z,99413.51
2018-10-03T11:28:47.183Z,99421.98
2018-10-03T11:31:15.729Z,99413.66
2018-10-03T11:33:44.432Z,99409.28
2018-10-03T11:36:13.240Z,99420.58
2018-10-03T11:38:42.767Z,99430.28
2018-10-03T11:41:13.554Z,99438.53
2018-10-03T11:43:42.121Z,99431.52
2018-10-03T11:46:11.151Z,99433.95
2018-10-03T11:48:39.732Z,99439.59
2018-10-03T11:51:09.433Z,99435.64
2018-10-03T11:53:38.119Z,99448.05
2018-10-03T11:56:06.660Z,99437.02
2018-10-03T11:58:35.174Z,99452.33
2018-10-03T12:01:03.866Z,99445.09
2018-10-03T12:03:32.544Z,99449.00
2018-10-03T12:06:00.966Z,99458.95
2018-10-03T12:08:29.779Z,99441.36
2018-10-03T12:10:58.260Z,99436.16
2018-10-03T12:13:27.559Z,99428.46
2018-10-03T12:15:56.039Z,99437.66
2018-10-03T12:18:24.691Z,99437.30
2018-10-03T12:20:53.140Z,99444.20
2018-10-03T12:23:21.590Z,99437.08
2018-10-03T12:25:50.891Z,99442.25
2018-10-03T12:28:19.309Z,99436.94
2018-10-03T12:30:47.650Z,99431.31
2018-10-03T12:33:16.186Z,99439.27
2018-10-03T12:35:44.598Z,99440.75
2018-10-03T12:38:12.994Z,99449.09
2018-10-03T12:40:53.507Z,99449.31
2018-10-03T12:43:21.970Z,99460.13
2018-10-03T12:45:50.334Z,99445.63
2018-10-03T12:48:18.897Z,99445.72
2018-10-03T12:50:47.280Z,99445.70
2018-10-03T12:53:15.731Z,99463.88
2018-10-03T12:55:44.222Z,99453.39
2018-10-03T12:58:12.574Z,99449.77
2018-10-03T13:00:41.161Z,99457.23
2018-10-03T13:03:09.670Z,99454.53
2018-10-03T13:05:38.083Z,99451.64
2018-10-03T13:08:14.238Z,99464.61
2018-10-03T13:10:42.670Z,99461.19
2018-10-03T13:13:11.010Z,99469.61
2018-10-03T13:15:39.487Z,99466.67
2018-10-03T13:18:07.907Z,99470.49
2018-10-03T13:20:37.567Z,99474.17
2018-10-03T13:23:06.124Z,99461.01
2018-10-03T13:25:34.528Z,99468.27
2018-10-03T13:28:02.995Z,99472.14
2018-10-03T13:30:31.365Z,99466.76
2018-10-03T13:33:00.166Z,99477.55
2018-10-03T13:35:28.608Z,99488.14
2018-10-03T13:37:57.147Z,99498.87
2018-10-03T13:40:25.603Z,99479.67
2018-10-03T13:42:53.971Z,99477.34
2018-10-03T13:45:22.407Z,99498.94
2018-10-03T13:47:53.566Z,99490.85
2018-10-03T13:50:21.956Z,99491.05
2018-10-03T13:52:50.298Z,99486.88
2018-10-03T13:55:18.767Z,99487.52
2018-10-03T13:57:47.154Z,99471.61
2018-10-03T14:00:15.643Z,99483.56
2018-10-03T14:02:44.032Z,99488.57
2018-10-03T14:05:12.718Z,99489.50
2018-10-03T14:07:41.446Z,99479.65
2018-10-03T14:10:16.685Z,99499.38
2018-10-03T14:15:21.344Z,99489.90
2018-10-03T14:17:49.811Z,99485.88
2018-10-03T14:20:18.226Z,99488.92
2018-10-03T14:22:46.635Z,99492.04
2018-10-03T14:25:15.028Z,99492.83
2018-10-03T14:27:43.523Z,99499.59
2018-10-03T14:30:14.627Z,99503.77
2018-10-03T14:32:43.184Z,99496.89
2018-10-03T14:35:18.758Z,99506.92
2018-10-03T14:37:52.045Z,99502.13
2018-10-03T14:40:20.485Z,99509.61
2018-10-03T14:42:55.065Z,99506.92
2018-10-03T14:45:23.455Z,99514.50
2018-10-03T14:47:51.836Z,99510.02
2018-10-03T14:50:21.489Z,99505.27
2018-10-03T14:52:49.966Z,99513.05
2018-10-03T14:55:18.314Z,99506.38
2018-10-03T14:57:46.775Z,99514.88
2018-10-03T15:00:16.967Z,99517.98
2018-10-03T15:02:45.487Z,99510.21
2018-10-03T15:05:13.859Z,99522.94
2018-10-03T15:07:42.290Z,99521.27
2018-10-03T15:10:10.807Z,99528.05
2018-10-03T15:12:39.168Z,99520.52
2018-10-03T15:15:07.736Z,99530.91
2018-10-03T15:17:36.085Z,99531.02
2018-10-03T15:20:04.555Z,99523.56
2018-10-03T15:22:32.876Z,99522.42
2018-10-03T15:25:01.245Z,99527.30
2018-10-03T15:27:29.867Z,99539.39
2018-10-03T15:29:58.356Z,99537.63
2018-10-03T15:32:26.595Z,99545.33
2018-10-03T15:34:55.241Z,99537.53
2018-10-03T15:37:23.602Z,99548.22
2018-10-03T15:39:51.971Z,99551.30
2018-10-03T15:42:20.345Z,99548.20
2018-10-03T15:44:48.718Z,99557.05
2018-10-03T15:47:18.680Z,99561.22
2018-10-03T15:49:47.127Z,99572.37
2018-10-03T15:52:17.524Z,99568.84
2018-10-03T15:54:45.959Z,99576.20
2018-10-03T15:57:14.522Z,99576.92
2018-10-03T15:59:43.018Z,99584.80
2018-10-03T16:02:11.478Z,99574.02
2018-10-03T16:04:39.849Z,99584.81
2018-10-03T16:07:08.187Z,99581.20
2018-10-03T16:09:36.597Z,99578.17
2018-10-03T16:12:04.903Z,99589.02
2018-10-03T16:14:33.412Z,99583.47
2018-10-03T16:17:01.845Z,99596.08
2018-10-03T16:19:30.363Z,99595.23
2018-10-03T16:21:58.711Z,99593.88
2018-10-03T16:24:27.267Z,99594.38
2018-10-03T16:26:55.652Z,99587.78
2018-10-03T16:29:24.190Z,99589.58
2018-10-03T16:31:53.077Z,99588.91
2018-10-03T16:34:21.833Z,99594.45
2018-10-03T16:36:50.446Z,99602.39
2018-10-03T16:39:19.004Z,99599.42
2018-10-03T16:41:47.447Z,99599.47
2018-10-03T16:44:15.852Z,99602.63
2018-10-03T16:46:45.028Z,99609.92
2018-10-03T16:49:13.579Z,99613.13
2018-10-03T16:51:42.163Z,99611.45
2018-10-03T16:54:11.247Z,99608.81
2018-10-03T16:56:39.972Z,99616.22
2018-10-03T16:59:09.146Z,99617.85
2018-10-03T17:01:38.114Z,99628.42
2018-10-03T17:04:06.468Z,99631.10
2018-10-03T17:06:34.829Z,99627.52
2018-10-03T17:09:03.467Z,99634.95
2018-10-03T17:11:32.852Z,99639.23
2018-10-03T17:14:40.439Z,99636.70
2018-10-03T17:17:09.576Z,99642.31
2018-10-03T17:19:38.199Z,99646.95
2018-10-03T17:22:06.890Z,99642.68
2018-10-03T17:24:36.494Z,99642.77
2018-10-03T17:27:04.897Z,99647.09
2018-10-03T17:29:33.236Z,99651.13
2018-10-03T17:32:01.691Z,99656.02
2018-10-03T17:34:30.014Z,99651.88
2018-10-03T17:36:58.630Z,99652.70
2018-10-03T17:39:27.715Z,99648.45
2018-10-03T17:41:56.182Z,99649.80
2018-10-03T17:44:25.685Z,99650.94
2018-10-03T17:46:55.405Z,99655.22
2018-10-03T17:49:23.745Z,99660.19
2018-10-03T17:51:52.190Z,99667.64
2018-10-03T17:54:20.763Z,99662.16
2018-10-03T17:56:49.505Z,99670.63
2018-10-03T17:59:18.406Z,99676.27
2018-10-03T18:01:51.230Z,99680.58
2018-10-03T18:04:19.800Z,99686.04
2018-10-03T18:06:48.245Z,99692.39
2018-10-03T18:09:16.987Z,99694.49
2018-10-03T18:11:45.424Z,99689.84
2018-10-03T18:14:13.834Z,99692.10
2018-10-03T18:16:42.211Z,99704.78
2018-10-03T18:19:10.586Z,99701.97
2018-10-03T18:21:38.926Z,99698.57
2018-10-03T18:24:07.365Z,99701.70
2018-10-03T18:26:36.024Z,99709.83
2018-10-03T18:29:04.515Z,99712.05
2018-10-03T18:31:32.981Z,99720.11
2018-10-03T18:34:01.202Z,99707.05
2018-10-03T18:36:30.242Z,99706.94
2018-10-03T18:38:58.535Z,99716.39
2018-10-03T18:41:26.863Z,99718.02
2018-10-03T18:43:55.168Z,99722.73
2018-10-03T18:46:23.535Z,99720.00
2018-10-03T18:48:51.963Z,99724.89
2018-10-03T18:51:20.291Z,99724.32
2018-10-03T18:53:48.961Z,99732.94
2018-10-03T18:56:17.324Z,99730.58
2018-10-03T18:58:45.646Z,99736.91
2018-10-03T19:01:14.047Z,99741.21
2018-10-03T19:03:42.632Z,99738.75
2018-10-03T19:06:11.190Z,99740.75
2018-10-03T19:08:39.515Z,99746.59
2018-10-03T19:11:07.889Z,99745.73
2018-10-03T19:13:36.331Z,99749.68
2018-10-03T19:16:04.875Z,99752.66
2018-10-03T19:18:33.467Z,99747.56
2018-10-03T19:21:01.753Z,99755.00
2018-10-03T19:23:30.110Z,99749.85
2018-10-03T19:25:58.447Z,99752.98
2018-10-03T19:28:26.883Z,99762.03
2018-10-03T19:30:55.404Z,99762.16
2018-10-03T19:33:23.750Z,99765.02
2018-10-03T19:35:52.117Z,99759.44
2018-10-03T19:38:20.465Z,99765.98
2018-10-03T19:40:50.131Z,99766.05
2018-10-03T19:43:18.920Z,99760.34
2018-10-03T19:45:47.493Z,99766.89
2018-10-03T19:48:16.243Z,99764.87
2018-10-03T19:50:45.011Z,99765.14
2018-10-03T19:53:13.412Z,99772.68
2018-10-03T19:55:41.745Z,99767.80
2018-10-03T19:58:10.042Z,99758.84
2018-10-03T20:00:38.371Z,99765.39
2018-10-03T20:03:06.838Z,99763.00
2018-10-03T20:05:35.224Z,99763.54
2018-10-03T20:08:03.584Z,99769.03
2018-10-03T20:10:32.003Z,99767.52
2018-10-03T20:13:00.311Z,99779.16
2018-10-03T20:15:28.739Z,99776.88
2018-10-03T20:17:57.042Z,99772.20
2018-10-03T20:20:25.540Z,99774.02
2018-10-03T20:22:53.924Z,99780.87
2018-10-03T20:25:22.372Z,99778.27
2018-10-03T20:27:50.707Z,99782.81
2018-10-03T20:30:19.107Z,99786.32
2018-10-03T20:32:47.659Z,99784.24
2018-10-03T20:35:16.041Z,99784.52
2018-10-03T20:37:44.696Z,99789.84
2018-10-03T20:40:13.081Z,99788.71
2018-10-03T20:42:41.526Z,99789.83
2018-10-03T20:45:09.859Z,99791.36
2018-10-03T20:47:38.214Z,99789.16
2018-10-03T20:50:06.644Z,99784.96
2018-10-03T20:52:34.963Z,99778.48
2018-10-03T20:55:03.314Z,99780.77
2018-10-03T20:57:31.667Z,99785.13
2018-10-03T21:00:00.012Z,99788.47
2018-10-03T21:02:28.559Z,99785.98
2018-10-03T21:04:57.075Z,99786.29
2018-10-03T21:07:25.434Z,99790.03
2018-10-03T21:09:53.811Z,99783.80
2018-10-03T21:12:22.372Z,99789.91
2018-10-03T21:14:50.707Z,99785.27
2018-10-03T21:17:19.316Z,99787.58
2018-10-03T21:19:47.713Z,99785.50
2018-10-03T21:22:16.058Z,99784.23
2018-10-03T21:24:44.503Z,99789.01
2018-10-03T21:27:12.994Z,99786.27
2018-10-03T21:29:41.311Z,99791.18
2018-10-03T21:32:09.623Z,99777.72
2018-10-03T21:34:37.938Z,99790.25
2018-10-03T21:37:06.316Z,99791.30
2018-10-03T21:39:34.648Z,99789.80
2018-10-03T21:42:02.997Z,99796.73
2018-10-03T21:44:31.291Z,99796.33
2018-10-03T21:46:59.616Z,99796.72
2018-10-03T21:49:27.969Z,99790.08
2018-10-03T21:51:57.662Z,99795.58
2018-10-03T21:54:26.001Z,99805.61
2018-10-03T21:56:54.327Z,99801.46
2018-10-03T21:59:22.686Z,99791.03
2018-10-03T22:01:51.009Z,99802.31
2018-10-03T22:04:19.346Z,99800.61
2018-10-03T22:06:47.658Z,99807.35
2018-10-03T22:09:15.974Z,99798.33
2018-10-03T22:11:44.343Z,99811.42
2018-10-03T22:14:12.690Z,99812.48
2018-10-03T22:16:41.055Z,99813.22
2018-10-03T22:19:09.447Z,99813.22
2018-10-03T22:21:37.819Z,99812.66
2018-10-03T22:24:06.151Z,99810.83
2018-10-03T22:26:34.471Z,99806.36
2018-10-03T22:29:02.863Z,99812.63
2018-10-03T22:31:31.175Z,99807.80
2018-10-03T22:33:59.491Z,99804.43
2018-10-03T22:36:27.899Z,99801.67
2018-10-03T22:38:56.215Z,99808.22
2018-10-03T22:41:24.580Z,99811.28
2018-10-03T22:43:52.887Z,99805.93
2018-10-03T22:46:21.283Z,99802.52
2018-10-03T22:48:49.563Z,99804.80
2018-10-03T22:51:17.880Z,99807.97
2018-10-03T22:53:46.214Z,99799.67
2018-10-03T22:56:14.598Z,99794.20
2018-10-03T22:58:43.035Z,99795.59
2018-10-03T23:01:11.405Z,99804.05
2018-10-03T23:03:39.741Z,99807.23
2018-10-03T23:06:08.097Z,99798.29
2018-10-03T23:08:36.963Z,99799.67
2018-10-03T23:11:05.312Z,99795.57
2018-10-03T23:13:33.663Z,99800.58
2018-10-03T23:16:02.028Z,99803.46
2018-10-03T23:18:30.439Z,99802.97
2018-10-03T23:20:58.741Z,99812.08
2018-10-03T23:23:27.095Z,99807.86
2018-10-03T23:25:55.390Z,99799.67
2018-10-03T23:28:23.716Z,99803.66
2018-10-03T23:30:52.416Z,99806.91
2018-10-03T23:33:20.749Z,99816.07
2018-10-03T23:35:49.065Z,99808.09
2018-10-03T23:38:17.411Z,99812.66
2018-10-03T23:40:45.771Z,99816.70
2018-10-03T23:43:14.316Z,99817.78
2018-10-03T23:45:42.675Z,99816.17
2018-10-03T23:48:10.999Z,99813.09
2018-10-03T23:50:39.334Z,99815.44
2018-10-03T23:53:07.663Z,99816.59
2018-10-03T23:55:35.967Z,99815.80
2018-10-03T23:58:04.339Z,99824.69
